• Join FlightAware (Why Join?)
  • Login
  • US Flag 
08:47AM EST


 

Airport Tracker/Info


-or-


 

Live Flight TrackerFlight Track Log ✈ OPT439 ✈ 28-Jul-2013 ✈ KACK - KTEB

Flight Track Log - Related Links

Times and Time Zones

All times are in EDT time to prevent confusion due to time zone crossing. See the OPT439 flight status page for this flight to view local times or setup timezone preferences in your user account.

Time Position Orientation Groundspeed Altitude Reporting Facility
EDT Latitude Longitude Course Direction KTS MPH feet Rate Location/Type
09:00PM 41.2383 -70.2097 298° West 227 261 5,400  Level Boston Center
09:01PM 41.2997 -70.2517 333° Northwest 217 250 8,300 2,280 Climbing Boston Center
09:02PM 41.3650 -70.2911 336° Northwest 233 268 10,100 1,980 Climbing Boston Center
09:03PM 41.3753 -70.3986 277° West 254 292 12,400 1,920 Climbing Boston Center
09:04PM 41.3836 -70.5172 275° West 281 323 14,000 1,680 Climbing Boston Center
09:05PM 41.4084 -70.6627 298° West  Level FlightAware Approximate
09:05PM 41.4000 -70.6275 281° West 330 380 15,800  Level Boston Center
09:06PM 41.4542 -70.7589 299° West 355 409 17,600 1,380 Climbing Boston Center
09:07PM 41.4975 -70.8658 298° West 360 414 18,600 1,680 Climbing Boston Center
09:08PM 41.5533 -71.0031 299° West 372 428 20,900 1,620 Climbing Boston Center
09:09PM 41.6008 -71.1214 298° West 372 428 21,900 540 Climbing Boston Center
09:10PM 41.6481 -71.2567 295° West 379 436 22,000  Climbing Boston Center
09:11PM 41.6972 -71.3919 296° West 397 457 22,000  Level Boston Center
09:12PM 41.7464 -71.5247 296° West 397 457 22,000  Level Boston Center
09:13PM 41.7847 -71.6356 295° West 392 451 22,000  Level Boston Center
09:14PM 41.8294 -71.7658 295° West 387 445 22,000  Level Boston Center
09:15PM 41.8761 -71.8964 296° West 387 445 22,000  Level Boston Center
09:16PM 41.9244 -72.0328 296° West 387 445 22,000  Level Boston Center
09:17PM 41.9728 -72.1719 295° West 397 457 22,000  Level Boston Center
09:18PM 42.0211 -72.3089 295° West 402 463 22,000 -600 Level Boston Center
09:19PM 42.0689 -72.4456 295° West 402 463 20,900 -1,920 Descending Boston Center
09:20PM 42.1211 -72.5914 296° West 395 455 18,200 -2,400 Descending Boston Center
09:21PM 42.1561 -72.7175 291° West 382 440 16,100 -1,020 Descending Boston Center
09:22PM 42.1539 -72.8406 269° West 354 407 16,000 -60 Descending Boston Center
09:23PM 42.1447 -72.9917 265° West 340 391 16,000 -60 Level Boston Center
09:24PM 42.1400 -73.0953 267° West 333 383 15,900 -900 Descending Boston Center
09:25PM 42.1289 -73.2267 264° West 327 376 14,300 -1,620 Descending Boston Center
09:26PM 42.1194 -73.3581 265° West 345 397 12,700 -1,200 Descending Boston Center
09:27PM 42.1081 -73.4894 263° West 357 411 12,000 -360 Descending Boston Center
09:28PM 42.1003 -73.6236 266° West 357 411 12,000  Level Boston Center
09:29PM 42.0908 -73.7353 264° West 357 411 12,000  Level Boston Center
09:30PM 42.0808 -73.8778 265° West 351 404 12,000  Level Boston Center
09:31PM 42.0708 -73.9922 263° West 346 398 12,000 -180 Level Boston Center
09:32PM 42.0214 -74.1056 240° Southwest 326 375 11,700 -600 Descending Boston Center
09:33PM 41.9658 -74.1964 231° Southwest 338 389 10,800 -840 Descending Boston Center
09:34PM 41.9017 -74.2978 230° Southwest 338 389 10,100 -360 Descending Boston Center
09:35PM 41.8383 -74.3517 212° Southwest 318 366 10,100  Level Boston Center
09:36PM 41.7519 -74.3992 202° Southwest 308 354 10,100  Level Boston Center
09:37PM 41.6889 -74.4361 204° Southwest 288 331 10,100 -360 Level Boston Center
09:38PM 41.6089 -74.4808 203° Southwest 288 331 9,400 -1,200 Descending Boston Center
09:39PM 41.5436 -74.5175 203° Southwest 288 331 7,700 -1,500 Descending Boston Center
09:40PM 41.4739 -74.5569 203° Southwest 271 312 6,400 -660 Descending Boston Center
09:42PM 41.3667 -74.6167 203° Southwest 265 305 6,100 -120 Descending New York TRACON
09:43PM 41.3000 -74.6333 191° South 262 302 6,100 -600 Level New York TRACON
09:44PM 41.2333 -74.6167 169° South 271 312 5,000 -1,020 Descending New York TRACON
09:45PM 41.1833 -74.5333 129° Southeast 281 323 4,100 -540 Descending New York TRACON
09:46PM 41.1500 -74.4500 118° Southeast 262 302 4,000 -540 Descending New York TRACON
09:47PM 41.1333 -74.3500 102° East 272 313 3,100 -480 Descending New York TRACON
09:48PM 41.1000 -74.2667 118° Southeast 257 296 3,100  Level New York TRACON
09:49PM 41.0667 -74.1833 118° Southeast 246 283 3,100 -420 Level New York TRACON
09:50PM 41.0500 -74.1167 108° East 192 221 2,400 -540 Descending New York TRACON
09:51PM 41.0167 -74.0833 143° Southeast 158 182 2,100 -180 Descending New York TRACON
09:52PM 40.9833 -74.0500 143° Southeast 154 177 2,100 -180 Level New York TRACON
09:53PM 40.9500 -74.0500 180° South 140 161 1,800 -540 Descending New York TRACON
09:54PM 40.9167 -74.0500 180° South 138 159 1,100 -720 Descending New York TRACON
09:55PM 40.8667 -74.0500 180° South 129 148 400 -720 Descending New York TRACON